sensor_id;sensor_type;location;lat;lon;timestamp;pressure;altitude;pressure_sealevel;temperature;humidity
13734;BME280;43298;52.560;13.508;2022-09-01T00:01:38;101516.88;;;15.77;100.00
13734;BME280;43298;52.560;13.508;2022-09-01T00:04:07;101513.50;;;15.75;100.00
13734;BME280;43298;52.560;13.508;2022-09-01T00:06:35;101517.81;;;15.76;100.00
13734;BME280;43298;52.560;13.508;2022-09-01T00:09:12;101512.75;;;15.73;100.00
13734;BME280;43298;52.560;13.508;2022-09-01T00:11:40;101516.88;;;15.77;100.00
13734;BME280;43298;52.560;13.508;2022-09-01T00:14:07;101517.94;;;15.73;100.00
13734;BME280;43298;52.560;13.508;2022-09-01T00:16:34;101516.13;;;15.75;100.00
13734;BME280;43298;52.560;13.508;2022-09-01T00:19:00;101519.63;;;15.74;100.00
13734;BME280;43298;52.560;13.508;2022-09-01T00:21:32;101521.50;;;15.72;100.00
13734;BME280;43298;52.560;13.508;2022-09-01T00:23:59;101520.72;;;15.70;100.00
13734;BME280;43298;52.560;13.508;2022-09-01T00:26:25;101513.66;;;15.72;100.00
13734;BME280;43298;52.560;13.508;2022-09-01T00:28:52;101516.34;;;15.70;100.00
13734;BME280;43298;52.560;13.508;2022-09-01T00:31:19;101513.81;;;15.69;100.00
13734;BME280;43298;52.560;13.508;2022-09-01T00:33:47;101511.34;;;15.66;100.00
13734;BME280;43298;52.560;13.508;2022-09-01T00:36:14;101512.28;;;15.65;100.00
13734;BME280;43298;52.560;13.508;2022-09-01T00:38:40;101504.00;;;15.57;100.00
13734;BME280;43298;52.560;13.508;2022-09-01T00:41:07;101498.16;;;15.52;100.00
13734;BME280;43298;52.560;13.508;2022-09-01T00:43:47;101502.69;;;15.48;100.00
13734;BME280;43298;52.560;13.508;2022-09-01T00:46:25;101499.25;;;15.48;100.00
13734;BME280;43298;52.560;13.508;2022-09-01T00:49:07;101496.84;;;15.43;100.00
13734;BME280;43298;52.560;13.508;2022-09-01T00:51:37;101501.31;;;15.41;100.00
13734;BME280;43298;52.560;13.508;2022-09-01T00:54:06;101498.00;;;15.38;100.00
13734;BME280;43298;52.560;13.508;2022-09-01T00:56:34;101491.22;;;15.34;100.00
13734;BME280;43298;52.560;13.508;2022-09-01T00:59:04;101488.91;;;15.28;100.00
13734;BME280;43298;52.560;13.508;2022-09-01T01:01:32;101488.09;;;15.27;100.00
13734;BME280;43298;52.560;13.508;2022-09-01T01:04:00;101492.22;;;15.31;100.00
13734;BME280;43298;52.560;13.508;2022-09-01T01:06:27;101488.16;;;15.26;100.00
13734;BME280;43298;52.560;13.508;2022-09-01T01:08:56;101488.31;;;15.23;100.00
13734;BME280;43298;52.560;13.508;2022-09-01T01:11:28;101477.03;;;15.22;100.00
13734;BME280;43298;52.560;13.508;2022-09-01T01:14:00;101477.34;;;15.16;100.00
13734;BME280;43298;52.560;13.508;2022-09-01T01:16:30;101476.50;;;15.16;100.00
13734;BME280;43298;52.560;13.508;2022-09-01T01:18:56;101467.00;;;15.15;100.00
13734;BME280;43298;52.560;13.508;2022-09-01T01:21:31;101465.47;;;15.11;100.00
13734;BME280;43298;52.560;13.508;2022-09-01T01:24:32;101459.41;;;15.10;100.00
13734;BME280;43298;52.560;13.508;2022-09-01T01:26:59;101459.47;;;15.08;100.00
13734;BME280;43298;52.560;13.508;2022-09-01T01:29:31;101457.94;;;15.04;100.00
13734;BME280;43298;52.560;13.508;2022-09-01T01:31:57;101445.84;;;15.03;100.00
13734;BME280;43298;52.560;13.508;2022-09-01T01:34:23;101441.50;;;15.02;100.00
13734;BME280;43298;52.560;13.508;2022-09-01T01:36:49;101448.78;;;14.96;100.00
13734;BME280;43298;52.560;13.508;2022-09-01T01:39:23;101444.50;;;14.95;100.00
13734;BME280;43298;52.560;13.508;2022-09-01T01:41:54;101435.16;;;14.91;100.00
13734;BME280;43298;52.560;13.508;2022-09-01T01:44:24;101433.63;;;14.87;100.00
13734;BME280;43298;52.560;13.508;2022-09-01T01:46:54;101428.50;;;14.85;100.00
13734;BME280;43298;52.560;13.508;2022-09-01T01:49:25;101419.91;;;14.83;100.00
13734;BME280;43298;52.560;13.508;2022-09-01T01:51:53;101419.28;;;14.78;100.00
13734;BME280;43298;52.560;13.508;2022-09-01T01:54:23;101410.16;;;14.70;100.00
13734;BME280;43298;52.560;13.508;2022-09-01T01:56:50;101405.75;;;14.70;100.00
13734;BME280;43298;52.560;13.508;2022-09-01T01:59:16;101409.44;;;14.66;100.00
13734;BME280;43298;52.560;13.508;2022-09-01T02:01:44;101394.03;;;14.62;100.00
13734;BME280;43298;52.560;13.508;2022-09-01T02:04:18;101393.56;;;14.54;100.00
13734;BME280;43298;52.560;13.508;2022-09-01T02:06:45;101391.81;;;14.54;100.00
13734;BME280;43298;52.560;13.508;2022-09-01T02:09:16;101383.22;;;14.52;100.00
13734;BME280;43298;52.560;13.508;2022-09-01T02:11:44;101390.41;;;14.47;100.00
13734;BME280;43298;52.560;13.508;2022-09-01T02:14:11;101387.03;;;14.45;100.00
13734;BME280;43298;52.560;13.508;2022-09-01T02:16:39;101383.81;;;14.40;100.00
13734;BME280;43298;52.560;13.508;2022-09-01T02:19:07;101376.78;;;14.42;100.00
13734;BME280;43298;52.560;13.508;2022-09-01T02:21:34;101374.31;;;14.39;100.00
13734;BME280;43298;52.560;13.508;2022-09-01T02:24:03;101373.81;;;14.31;100.00
13734;BME280;43298;52.560;13.508;2022-09-01T02:26:35;101364.81;;;14.20;100.00
13734;BME280;43298;52.560;13.508;2022-09-01T02:29:07;101368.19;;;14.03;100.00
13734;BME280;43298;52.560;13.508;2022-09-01T02:31:35;101365.44;;;14.06;100.00
13734;BME280;43298;52.560;13.508;2022-09-01T02:34:04;101357.13;;;13.98;100.00
13734;BME280;43298;52.560;13.508;2022-09-01T02:36:33;101349.06;;;13.86;100.00
13734;BME280;43298;52.560;13.508;2022-09-01T02:38:59;101349.25;;;13.81;100.00
13734;BME280;43298;52.560;13.508;2022-09-01T02:41:25;101351.91;;;13.80;100.00
13734;BME280;43298;52.560;13.508;2022-09-01T02:43:56;101341.22;;;13.67;100.00
13734;BME280;43298;52.560;13.508;2022-09-01T02:46:27;101334.25;;;13.49;100.00
13734;BME280;43298;52.560;13.508;2022-09-01T02:48:55;101334.53;;;13.43;100.00
13734;BME280;43298;52.560;13.508;2022-09-01T02:51:23;101334.00;;;13.35;100.00
13734;BME280;43298;52.560;13.508;2022-09-01T02:53:52;101324.22;;;13.22;100.00
13734;BME280;43298;52.560;13.508;2022-09-01T02:56:21;101320.59;;;13.06;100.00
13734;BME280;43298;52.560;13.508;2022-09-01T02:58:48;101315.53;;;13.03;100.00
13734;BME280;43298;52.560;13.508;2022-09-01T03:01:25;101312.25;;;12.98;100.00
13734;BME280;43298;52.560;13.508;2022-09-01T03:03:57;101301.22;;;12.93;100.00
13734;BME280;43298;52.560;13.508;2022-09-01T03:06:25;101303.81;;;12.93;100.00
13734;BME280;43298;52.560;13.508;2022-09-01T03:08:54;101303.94;;;12.90;100.00
13734;BME280;43298;52.560;13.508;2022-09-01T03:11:21;101294.84;;;12.80;100.00
13734;BME280;43298;52.560;13.508;2022-09-01T03:13:49;101288.28;;;12.71;100.00
13734;BME280;43298;52.560;13.508;2022-09-01T03:16:15;101287.00;;;12.61;100.00
13734;BME280;43298;52.560;13.508;2022-09-01T03:18:41;101273.09;;;12.62;100.00
13734;BME280;43298;52.560;13.508;2022-09-01T03:21:08;101274.22;;;12.57;100.00
13734;BME280;43298;52.560;13.508;2022-09-01T03:23:35;101269.06;;;12.55;100.00
13734;BME280;43298;52.560;13.508;2022-09-01T03:26:01;101268.34;;;12.52;100.00
13734;BME280;43298;52.560;13.508;2022-09-01T03:28:27;101259.00;;;12.48;100.00
13734;BME280;43298;52.560;13.508;2022-09-01T03:30:56;101256.53;;;12.45;100.00
13734;BME280;43298;52.560;13.508;2022-09-01T03:33:25;101255.31;;;12.33;100.00
13734;BME280;43298;52.560;13.508;2022-09-01T03:35:52;101256.63;;;12.22;100.00
13734;BME280;43298;52.560;13.508;2022-09-01T03:38:19;101254.22;;;12.17;100.00
13734;BME280;43298;52.560;13.508;2022-09-01T03:40:54;101257.94;;;12.10;100.00
13734;BME280;43298;52.560;13.508;2022-09-01T03:43:24;101250.75;;;12.18;100.00
13734;BME280;43298;52.560;13.508;2022-09-01T03:45:54;101253.97;;;12.23;100.00
13734;BME280;43298;52.560;13.508;2022-09-01T03:48:22;101257.06;;;12.11;100.00
13734;BME280;43298;52.560;13.508;2022-09-01T03:50:49;101251.09;;;12.09;100.00
13734;BME280;43298;52.560;13.508;2022-09-01T03:53:19;101250.50;;;12.02;100.00
13734;BME280;43298;52.560;13.508;2022-09-01T03:55:47;101255.41;;;12.08;100.00
13734;BME280;43298;52.560;13.508;2022-09-01T03:58:16;101253.56;;;12.12;100.00
13734;BME280;43298;52.560;13.508;2022-09-01T04:00:53;101243.97;;;12.14;100.00
13734;BME280;43298;52.560;13.508;2022-09-01T04:03:26;101251.09;;;12.09;100.00
13734;BME280;43298;52.560;13.508;2022-09-01T04:05:53;101243.38;;;12.07;100.00
13734;BME280;43298;52.560;13.508;2022-09-01T04:08:21;101243.44;;;12.06;100.00
13734;BME280;43298;52.560;13.508;2022-09-01T04:10:54;101246.69;;;12.11;100.00
13734;BME280;43298;52.560;13.508;2022-09-01T04:13:36;101245.06;;;12.08;100.00
13734;BME280;43298;52.560;13.508;2022-09-01T04:16:03;101237.31;;;12.07;100.00
13734;BME280;43298;52.560;13.508;2022-09-01T04:18:55;101240.91;;;12.04;100.00
13734;BME280;43298;52.560;13.508;2022-09-01T04:21:21;101233.00;;;12.07;100.00
13734;BME280;43298;52.560;13.508;2022-09-01T04:23:47;101234.78;;;12.05;100.00
13734;BME280;43298;52.560;13.508;2022-09-01T04:26:13;101238.41;;;12.01;100.00
13734;BME280;43298;52.560;13.508;2022-09-01T04:28:47;101231.72;;;11.96;100.00
13734;BME280;43298;52.560;13.508;2022-09-01T04:31:18;101230.47;;;12.06;100.00
13734;BME280;43298;52.560;13.508;2022-09-01T04:33:51;101235.88;;;12.00;100.00
13734;BME280;43298;52.560;13.508;2022-09-01T04:36:25;101237.81;;;11.95;100.00
13734;BME280;43298;52.560;13.508;2022-09-01T04:38:58;101240.34;;;11.96;100.00
13734;BME280;43298;52.560;13.508;2022-09-01T04:41:29;101237.81;;;11.95;100.00
13734;BME280;43298;52.560;13.508;2022-09-01T04:43:59;101238.75;;;11.94;100.00
13734;BME280;43298;52.560;13.508;2022-09-01T04:46:37;101246.63;;;11.91;100.00
13734;BME280;43298;52.560;13.508;2022-09-01T04:49:04;101242.31;;;11.91;100.00
13734;BME280;43298;52.560;13.508;2022-09-01T04:51:40;101245.72;;;11.92;100.00
13734;BME280;43298;52.560;13.508;2022-09-01T04:54:07;101241.16;;;11.98;100.00
13734;BME280;43298;52.560;13.508;2022-09-01T04:56:38;101236.78;;;11.99;100.00
13734;BME280;43298;52.560;13.508;2022-09-01T04:59:04;101240.91;;;12.04;100.00
13734;BME280;43298;52.560;13.508;2022-09-01T05:01:33;101240.13;;;12.02;100.00
13734;BME280;43298;52.560;13.508;2022-09-01T05:04:31;101241.63;;;12.08;100.00
13734;BME280;43298;52.560;13.508;2022-09-01T05:07:00;101242.22;;;12.14;100.00
13734;BME280;43298;52.560;13.508;2022-09-01T05:09:30;101247.22;;;12.19;100.00
13734;BME280;43298;52.560;13.508;2022-09-01T05:11:58;101249.75;;;12.21;100.00
13734;BME280;43298;52.560;13.508;2022-09-01T05:14:44;101240.09;;;12.24;100.00
13734;BME280;43298;52.560;13.508;2022-09-01T05:17:13;101248.63;;;12.28;100.00
13734;BME280;43298;52.560;13.508;2022-09-01T05:19:45;101242.69;;;12.24;100.00
13734;BME280;43298;52.560;13.508;2022-09-01T05:22:13;101249.25;;;12.33;100.00
13734;BME280;43298;52.560;13.508;2022-09-01T05:24:40;101245.69;;;12.35;100.00
13734;BME280;43298;52.560;13.508;2022-09-01T05:27:06;101241.75;;;12.47;100.00
13734;BME280;43298;52.560;13.508;2022-09-01T05:29:32;101252.00;;;12.50;100.00
13734;BME280;43298;52.560;13.508;2022-09-01T05:32:02;101250.28;;;12.50;100.00
13734;BME280;43298;52.560;13.508;2022-09-01T05:34:33;101250.06;;;12.55;100.00
13734;BME280;43298;52.560;13.508;2022-09-01T05:37:02;101261.19;;;12.58;100.00
13734;BME280;43298;52.560;13.508;2022-09-01T05:39:29;101254.94;;;12.62;100.00
13734;BME280;43298;52.560;13.508;2022-09-01T05:41:58;101256.19;;;12.74;100.00
13734;BME280;43298;52.560;13.508;2022-09-01T05:44:24;101255.91;;;12.80;100.00
13734;BME280;43298;52.560;13.508;2022-09-01T05:46:50;101262.59;;;12.85;100.00
13734;BME280;43298;52.560;13.508;2022-09-01T05:49:16;101263.31;;;12.89;100.00
13734;BME280;43298;52.560;13.508;2022-09-01T05:51:46;101274.81;;;13.03;100.00
13734;BME280;43298;52.560;13.508;2022-09-01T05:54:20;101271.22;;;13.07;100.00
13734;BME280;43298;52.560;13.508;2022-09-01T05:56:48;101275.28;;;13.13;100.00
13734;BME280;43298;52.560;13.508;2022-09-01T05:59:14;101272.22;;;13.23;100.00
13734;BME280;43298;52.560;13.508;2022-09-01T06:01:40;101273.50;;;13.33;100.00
13734;BME280;43298;52.560;13.508;2022-09-01T06:04:08;101279.13;;;13.43;100.00
13734;BME280;43298;52.560;13.508;2022-09-01T06:06:42;101288.75;;;13.59;100.00
13734;BME280;43298;52.560;13.508;2022-09-01T06:09:14;101287.16;;;13.75;100.00
13734;BME280;43298;52.560;13.508;2022-09-01T06:11:44;101285.94;;;14.01;100.00
13734;BME280;43298;52.560;13.508;2022-09-01T06:14:15;101295.88;;;14.64;100.00
13734;BME280;43298;52.560;13.508;2022-09-01T06:16:42;101301.69;;;15.20;100.00
13734;BME280;43298;52.560;13.508;2022-09-01T06:19:09;101323.88;;;15.77;100.00
13734;BME280;43298;52.560;13.508;2022-09-01T06:21:37;101338.31;;;16.15;100.00
13734;BME280;43298;52.560;13.508;2022-09-01T06:24:04;101363.50;;;16.47;100.00
13734;BME280;43298;52.560;13.508;2022-09-01T06:26:34;101374.41;;;16.84;100.00
13734;BME280;43298;52.560;13.508;2022-09-01T06:29:07;101393.81;;;16.65;100.00
13734;BME280;43298;52.560;13.508;2022-09-01T06:31:36;101399.97;;;16.48;100.00
13734;BME280;43298;52.560;13.508;2022-09-01T06:34:08;101408.50;;;16.97;100.00
13734;BME280;43298;52.560;13.508;2022-09-01T06:36:38;101411.88;;;17.58;100.00
13734;BME280;43298;52.560;13.508;2022-09-01T06:39:06;101435.03;;;17.34;100.00
13734;BME280;43298;52.560;13.508;2022-09-01T06:41:33;101430.56;;;17.07;100.00
13734;BME280;43298;52.560;13.508;2022-09-01T06:43:59;101437.41;;;17.68;100.00
13734;BME280;43298;52.560;13.508;2022-09-01T06:46:26;101451.94;;;17.29;100.00
13734;BME280;43298;52.560;13.508;2022-09-01T06:48:54;101448.16;;;17.19;100.00
13734;BME280;43298;52.560;13.508;2022-09-01T06:51:21;101455.59;;;17.11;100.00
13734;BME280;43298;52.560;13.508;2022-09-01T06:53:49;101453.91;;;17.69;100.00
13734;BME280;43298;52.560;13.508;2022-09-01T06:56:18;101462.34;;;17.74;100.00
13734;BME280;43298;52.560;13.508;2022-09-01T06:58:45;101468.69;;;17.84;100.00
13734;BME280;43298;52.560;13.508;2022-09-01T07:01:17;101475.34;;;18.18;100.00
13734;BME280;43298;52.560;13.508;2022-09-01T07:03:47;101474.50;;;17.89;100.00
13734;BME280;43298;52.560;13.508;2022-09-01T07:06:14;101471.31;;;17.84;100.00
13734;BME280;43298;52.560;13.508;2022-09-01T07:08:41;101473.00;;;18.55;100.00
13734;BME280;43298;52.560;13.508;2022-09-01T07:11:18;101483.50;;;18.13;100.00
13734;BME280;43298;52.560;13.508;2022-09-01T07:13:55;101485.09;;;18.58;100.00
13734;BME280;43298;52.560;13.508;2022-09-01T07:16:23;101487.25;;;18.37;100.00
13734;BME280;43298;52.560;13.508;2022-09-01T07:18:54;101499.59;;;18.49;100.00
13734;BME280;43298;52.560;13.508;2022-09-01T07:21:26;101508.19;;;18.51;100.00
13734;BME280;43298;52.560;13.508;2022-09-01T07:23:53;101510.97;;;18.62;100.00
13734;BME280;43298;52.560;13.508;2022-09-01T07:26:20;101503.88;;;19.05;100.00
13734;BME280;43298;52.560;13.508;2022-09-01T07:28:49;101505.22;;;18.98;100.00
13734;BME280;43298;52.560;13.508;2022-09-01T07:31:19;101505.59;;;18.37;100.00
13734;BME280;43298;52.560;13.508;2022-09-01T07:33:47;101507.28;;;18.38;100.00
13734;BME280;43298;52.560;13.508;2022-09-01T07:36:15;101507.16;;;18.94;100.00
13734;BME280;43298;52.560;13.508;2022-09-01T07:38:41;101517.56;;;19.22;100.00
13734;BME280;43298;52.560;13.508;2022-09-01T07:41:09;101526.16;;;18.71;100.00
13734;BME280;43298;52.560;13.508;2022-09-01T07:43:38;101519.97;;;18.72;100.00
13734;BME280;43298;52.560;13.508;2022-09-01T07:46:10;101522.03;;;18.81;100.00
13734;BME280;43298;52.560;13.508;2022-09-01T07:48:37;101531.59;;;19.09;100.00
13734;BME280;43298;52.560;13.508;2022-09-01T07:51:04;101533.09;;;18.99;100.00
13734;BME280;43298;52.560;13.508;2022-09-01T07:53:34;101538.72;;;18.93;100.00
13734;BME280;43298;52.560;13.508;2022-09-01T07:56:08;101542.06;;;19.49;100.00
13734;BME280;43298;52.560;13.508;2022-09-01T07:58:36;101548.97;;;19.50;100.00
13734;BME280;43298;52.560;13.508;2022-09-01T08:01:08;101558.69;;;19.36;100.00
13734;BME280;43298;52.560;13.508;2022-09-01T08:03:34;101568.34;;;19.35;100.00
13734;BME280;43298;52.560;13.508;2022-09-01T08:06:07;101579.44;;;19.65;100.00
13734;BME280;43298;52.560;13.508;2022-09-01T08:08:34;101588.00;;;19.81;100.00
13734;BME280;43298;52.560;13.508;2022-09-01T08:11:01;101584.34;;;19.96;100.00
13734;BME280;43298;52.560;13.508;2022-09-01T08:13:27;101590.25;;;19.87;100.00
13734;BME280;43298;52.560;13.508;2022-09-01T08:15:54;101606.84;;;20.00;100.00
13734;BME280;43298;52.560;13.508;2022-09-01T08:18:20;101611.50;;;20.09;100.00
13734;BME280;43298;52.560;13.508;2022-09-01T08:20:46;101616.38;;;20.01;100.00
13734;BME280;43298;52.560;13.508;2022-09-01T08:23:17;101615.19;;;19.68;100.00
13734;BME280;43298;52.560;13.508;2022-09-01T08:25:45;101618.19;;;20.01;100.00
13734;BME280;43298;52.560;13.508;2022-09-01T08:28:12;101619.97;;;20.00;100.00
13734;BME280;43298;52.560;13.508;2022-09-01T08:30:41;101620.56;;;20.18;100.00
13734;BME280;43298;52.560;13.508;2022-09-01T08:33:08;101636.97;;;19.95;100.00
13734;BME280;43298;52.560;13.508;2022-09-01T08:35:43;101632.78;;;20.44;100.00
13734;BME280;43298;52.560;13.508;2022-09-01T08:38:10;101635.19;;;20.59;100.00
13734;BME280;43298;52.560;13.508;2022-09-01T08:40:37;101640.00;;;20.40;100.00
13734;BME280;43298;52.560;13.508;2022-09-01T08:45:53;101656.63;;;20.66;100.00
13734;BME280;43298;52.560;13.508;2022-09-01T08:48:33;101658.00;;;20.84;100.00
13734;BME280;43298;52.560;13.508;2022-09-01T08:51:21;101674.53;;;20.74;100.00
13734;BME280;43298;52.560;13.508;2022-09-01T08:54:24;101659.91;;;20.82;100.00
13734;BME280;43298;52.560;13.508;2022-09-01T08:57:04;101673.06;;;21.07;100.00
13734;BME280;43298;52.560;13.508;2022-09-01T08:59:31;101668.56;;;21.33;100.00
13734;BME280;43298;52.560;13.508;2022-09-01T09:11:10;101722.63;;;21.98;100.00
13734;BME280;43298;52.560;13.508;2022-09-01T09:16:44;101706.72;;;21.51;100.00
13734;BME280;43298;52.560;13.508;2022-09-01T09:19:21;101692.06;;;20.60;100.00
13734;BME280;43298;52.560;13.508;2022-09-01T09:21:51;101694.91;;;20.83;100.00
13734;BME280;43298;52.560;13.508;2022-09-01T09:29:51;101721.06;;;21.47;100.00
13734;BME280;43298;52.560;13.508;2022-09-01T09:32:19;101718.47;;;20.59;100.00
13734;BME280;43298;52.560;13.508;2022-09-01T09:34:46;101713.44;;;20.17;100.00
13734;BME280;43298;52.560;13.508;2022-09-01T09:37:30;101711.84;;;21.29;100.00
13734;BME280;43298;52.560;13.508;2022-09-01T09:40:19;101726.75;;;20.65;100.00
13734;BME280;43298;52.560;13.508;2022-09-01T09:45:34;101716.91;;;21.32;100.00
13734;BME280;43298;52.560;13.508;2022-09-01T09:48:28;101715.63;;;21.37;100.00
13734;BME280;43298;52.560;13.508;2022-09-01T09:50:54;101725.38;;;22.31;100.00
13734;BME280;43298;52.560;13.508;2022-09-01T09:58:45;101724.06;;;21.78;100.00
13734;BME280;43298;52.560;13.508;2022-09-01T10:03:55;101721.16;;;23.30;100.00
13734;BME280;43298;52.560;13.508;2022-09-01T10:06:33;101729.34;;;22.60;97.68
13734;BME280;43298;52.560;13.508;2022-09-01T10:09:05;101724.63;;;23.31;95.81
13734;BME280;43298;52.560;13.508;2022-09-01T10:11:44;101720.19;;;23.54;88.25
13734;BME280;43298;52.560;13.508;2022-09-01T10:14:32;101722.59;;;23.34;89.72
13734;BME280;43298;52.560;13.508;2022-09-01T10:17:33;101727.84;;;23.12;89.63
13734;BME280;43298;52.560;13.508;2022-09-01T10:20:14;101720.34;;;23.30;89.14
13734;BME280;43298;52.560;13.508;2022-09-01T10:22:42;101722.66;;;23.77;82.76
13734;BME280;43298;52.560;13.508;2022-09-01T10:25:17;101728.22;;;24.06;77.46
13734;BME280;43298;52.560;13.508;2022-09-01T10:27:50;101713.59;;;23.48;76.21
13734;BME280;43298;52.560;13.508;2022-09-01T10:30:21;101725.34;;;24.09;74.43
13734;BME280;43298;52.560;13.508;2022-09-01T10:32:56;101732.22;;;23.89;72.38
13734;BME280;43298;52.560;13.508;2022-09-01T10:35:40;101717.75;;;23.62;67.26
13734;BME280;43298;52.560;13.508;2022-09-01T10:38:30;101712.25;;;23.54;72.04
13734;BME280;43298;52.560;13.508;2022-09-01T10:40:57;101718.03;;;23.25;80.32
13734;BME280;43298;52.560;13.508;2022-09-01T10:48:52;101718.28;;;24.30;71.18
13734;BME280;43298;52.560;13.508;2022-09-01T10:53:58;101716.22;;;24.95;69.04
13734;BME280;43298;52.560;13.508;2022-09-01T10:56:46;101714.03;;;24.59;70.15
13734;BME280;43298;52.560;13.508;2022-09-01T11:11:11;101712.41;;;21.93;86.12
13734;BME280;43298;52.560;13.508;2022-09-01T11:13:43;101707.81;;;22.77;75.89
13734;BME280;43298;52.560;13.508;2022-09-01T11:16:36;101704.47;;;23.19;70.97
13734;BME280;43298;52.560;13.508;2022-09-01T11:19:37;101702.06;;;24.03;68.31
13734;BME280;43298;52.560;13.508;2022-09-01T11:22:16;101701.44;;;24.92;63.93
13734;BME280;43298;52.560;13.508;2022-09-01T11:30:22;101700.91;;;24.57;57.85
13734;BME280;43298;52.560;13.508;2022-09-01T11:32:56;101698.94;;;23.55;61.31
13734;BME280;43298;52.560;13.508;2022-09-01T11:35:25;101696.91;;;23.37;64.87
13734;BME280;43298;52.560;13.508;2022-09-01T11:38:03;101696.19;;;23.23;69.51
13734;BME280;43298;52.560;13.508;2022-09-01T11:40:34;101698.06;;;22.66;67.21
13734;BME280;43298;52.560;13.508;2022-09-01T11:43:10;101706.63;;;23.14;64.82
13734;BME280;43298;52.560;13.508;2022-09-01T11:48:16;101706.03;;;24.49;62.03
13734;BME280;43298;52.560;13.508;2022-09-01T11:50:42;101697.00;;;24.52;61.31
13734;BME280;43298;52.560;13.508;2022-09-01T11:53:13;101698.69;;;24.73;60.51
13734;BME280;43298;52.560;13.508;2022-09-01T11:55:44;101696.34;;;24.59;60.61
13734;BME280;43298;52.560;13.508;2022-09-01T12:00:56;101692.31;;;22.61;70.93
13734;BME280;43298;52.560;13.508;2022-09-01T12:03:28;101692.22;;;22.85;74.32
13734;BME280;43298;52.560;13.508;2022-09-01T12:06:11;101698.38;;;21.93;84.10
13734;BME280;43298;52.560;13.508;2022-09-01T12:08:41;101696.22;;;22.10;89.16
13734;BME280;43298;52.560;13.508;2022-09-01T12:11:12;101700.25;;;22.03;94.92
13734;BME280;43298;52.560;13.508;2022-09-01T12:14:19;101698.56;;;21.79;91.42
13734;BME280;43298;52.560;13.508;2022-09-01T12:17:04;101703.38;;;21.85;91.36
13734;BME280;43298;52.560;13.508;2022-09-01T12:19:33;101698.66;;;21.77;95.75
13734;BME280;43298;52.560;13.508;2022-09-01T12:22:20;101699.94;;;21.72;100.00
13734;BME280;43298;52.560;13.508;2022-09-01T12:24:52;101701.06;;;22.04;99.64
13734;BME280;43298;52.560;13.508;2022-09-01T12:27:20;101690.59;;;21.91;99.11
13734;BME280;43298;52.560;13.508;2022-09-01T12:29:49;101696.75;;;22.37;96.67
13734;BME280;43298;52.560;13.508;2022-09-01T12:32:16;101698.34;;;23.18;90.11
13734;BME280;43298;52.560;13.508;2022-09-01T12:34:46;101686.88;;;23.73;84.33
13734;BME280;43298;52.560;13.508;2022-09-01T12:37:19;101693.50;;;23.68;85.54
13734;BME280;43298;52.560;13.508;2022-09-01T12:39:49;101695.59;;;23.42;79.77
13734;BME280;43298;52.560;13.508;2022-09-01T12:45:00;101688.19;;;24.10;75.40
13734;BME280;43298;52.560;13.508;2022-09-01T12:57:56;101666.69;;;24.35;66.57
13734;BME280;43298;52.560;13.508;2022-09-01T13:00:29;101669.19;;;23.96;69.41
13734;BME280;43298;52.560;13.508;2022-09-01T13:05:45;101672.28;;;22.48;81.98
13734;BME280;43298;52.560;13.508;2022-09-01T13:08:21;101663.53;;;22.24;85.15
13734;BME280;43298;52.560;13.508;2022-09-01T13:10:54;101685.84;;;21.73;85.14
13734;BME280;43298;52.560;13.508;2022-09-01T13:13:23;101676.78;;;21.77;86.95
13734;BME280;43298;52.560;13.508;2022-09-01T13:15:52;101676.38;;;21.58;82.74
13734;BME280;43298;52.560;13.508;2022-09-01T13:18:22;101672.06;;;21.57;87.12
13734;BME280;43298;52.560;13.508;2022-09-01T13:20:49;101669.81;;;21.76;84.45
13734;BME280;43298;52.560;13.508;2022-09-01T13:23:16;101675.38;;;21.84;85.78
13734;BME280;43298;52.560;13.508;2022-09-01T13:25:42;101668.50;;;21.81;81.05
13734;BME280;43298;52.560;13.508;2022-09-01T13:28:13;101671.03;;;21.83;77.86
13734;BME280;43298;52.560;13.508;2022-09-01T13:30:40;101665.25;;;22.01;78.17
13734;BME280;43298;52.560;13.508;2022-09-01T13:33:06;101665.59;;;22.31;80.61
13734;BME280;43298;52.560;13.508;2022-09-01T13:35:32;101663.66;;;22.68;75.77
13734;BME280;43298;52.560;13.508;2022-09-01T13:37:58;101664.16;;;22.73;79.94
13734;BME280;43298;52.560;13.508;2022-09-01T13:40:24;101663.66;;;22.22;82.99
13734;BME280;43298;52.560;13.508;2022-09-01T13:42:53;101670.09;;;22.07;86.30
13734;BME280;43298;52.560;13.508;2022-09-01T13:45:22;101660.28;;;22.20;88.36
13734;BME280;43298;52.560;13.508;2022-09-01T13:47:51;101668.31;;;22.19;86.68
13734;BME280;43298;52.560;13.508;2022-09-01T13:50:20;101663.31;;;21.92;85.59
13734;BME280;43298;52.560;13.508;2022-09-01T13:52:52;101666.94;;;21.79;90.14
13734;BME280;43298;52.560;13.508;2022-09-01T13:55:26;101661.72;;;21.90;86.23
13734;BME280;43298;52.560;13.508;2022-09-01T13:57:52;101659.56;;;22.18;85.99
13734;BME280;43298;52.560;13.508;2022-09-01T14:00:23;101659.31;;;22.10;87.48
13734;BME280;43298;52.560;13.508;2022-09-01T14:02:53;101658.94;;;22.15;87.20
13734;BME280;43298;52.560;13.508;2022-09-01T14:05:27;101651.13;;;22.37;82.19
13734;BME280;43298;52.560;13.508;2022-09-01T14:07:54;101650.13;;;22.72;83.15
13734;BME280;43298;52.560;13.508;2022-09-01T14:10:21;101654.31;;;22.75;79.21